sensor_id;sensor_type;location;lat;lon;timestamp;temperature;humidity
40287;DHT22;25998;46.604;13.610;2023-02-28T00:02:44;0.20;99.90
40287;DHT22;25998;46.604;13.610;2023-02-28T00:05:55;0.30;99.90
40287;DHT22;25998;46.604;13.610;2023-02-28T00:09:06;0.20;99.90
40287;DHT22;25998;46.604;13.610;2023-02-28T00:12:17;0.30;99.90
40287;DHT22;25998;46.604;13.610;2023-02-28T00:15:28;0.40;99.90
40287;DHT22;25998;46.604;13.610;2023-02-28T00:18:39;0.50;99.90
40287;DHT22;25998;46.604;13.610;2023-02-28T00:21:50;0.50;99.90
40287;DHT22;25998;46.604;13.610;2023-02-28T00:25:01;0.30;99.90
40287;DHT22;25998;46.604;13.610;2023-02-28T00:28:12;0.20;99.90
40287;DHT22;25998;46.604;13.610;2023-02-28T00:31:23;0.20;99.90
40287;DHT22;25998;46.604;13.610;2023-02-28T00:34:33;0.20;99.90
40287;DHT22;25998;46.604;13.610;2023-02-28T00:37:48;0.00;99.90
40287;DHT22;25998;46.604;13.610;2023-02-28T00:41:00;0.00;99.90
40287;DHT22;25998;46.604;13.610;2023-02-28T00:44:14;0.00;99.90
40287;DHT22;25998;46.604;13.610;2023-02-28T00:47:25;-0.10;99.90
40287;DHT22;25998;46.604;13.610;2023-02-28T00:50:36;-0.20;99.90
40287;DHT22;25998;46.604;13.610;2023-02-28T00:53:47;-0.20;99.90
40287;DHT22;25998;46.604;13.610;2023-02-28T00:56:58;-0.10;99.90
40287;DHT22;25998;46.604;13.610;2023-02-28T01:00:10;0.00;99.90
40287;DHT22;25998;46.604;13.610;2023-02-28T01:03:22;-0.10;99.90
40287;DHT22;25998;46.604;13.610;2023-02-28T01:06:33;-0.10;99.90
40287;DHT22;25998;46.604;13.610;2023-02-28T01:09:44;-0.10;99.90
40287;DHT22;25998;46.604;13.610;2023-02-28T01:12:55;-0.30;99.90
40287;DHT22;25998;46.604;13.610;2023-02-28T01:16:06;-0.40;99.90
40287;DHT22;25998;46.604;13.610;2023-02-28T01:19:17;-0.60;99.90
40287;DHT22;25998;46.604;13.610;2023-02-28T01:22:28;-0.50;99.90
40287;DHT22;25998;46.604;13.610;2023-02-28T01:25:39;-0.40;99.90
40287;DHT22;25998;46.604;13.610;2023-02-28T01:28:51;-0.40;99.90
40287;DHT22;25998;46.604;13.610;2023-02-28T01:32:02;-0.40;99.90
40287;DHT22;25998;46.604;13.610;2023-02-28T01:35:13;-0.30;99.90
40287;DHT22;25998;46.604;13.610;2023-02-28T01:38:24;-0.30;99.90
40287;DHT22;25998;46.604;13.610;2023-02-28T01:41:35;-0.20;99.90
40287;DHT22;25998;46.604;13.610;2023-02-28T01:45:22;-0.30;99.90
40287;DHT22;25998;46.604;13.610;2023-02-28T01:48:38;-0.40;99.90
40287;DHT22;25998;46.604;13.610;2023-02-28T01:51:53;-0.40;99.90
40287;DHT22;25998;46.604;13.610;2023-02-28T01:55:07;-0.50;99.90
40287;DHT22;25998;46.604;13.610;2023-02-28T01:58:20;-0.60;99.90
40287;DHT22;25998;46.604;13.610;2023-02-28T02:01:31;-0.60;99.90
40287;DHT22;25998;46.604;13.610;2023-02-28T02:04:50;-0.70;99.90
40287;DHT22;25998;46.604;13.610;2023-02-28T02:08:04;-0.60;99.90
40287;DHT22;25998;46.604;13.610;2023-02-28T02:11:18;-0.50;99.90
40287;DHT22;25998;46.604;13.610;2023-02-28T02:14:43;-0.50;99.90
40287;DHT22;25998;46.604;13.610;2023-02-28T02:18:04;-0.20;99.90
40287;DHT22;25998;46.604;13.610;2023-02-28T02:25:15;0.00;99.90
40287;DHT22;25998;46.604;13.610;2023-02-28T02:28:41;0.20;99.90
40287;DHT22;25998;46.604;13.610;2023-02-28T02:32:19;0.10;99.90
40287;DHT22;25998;46.604;13.610;2023-02-28T02:42:13;0.00;99.90
40287;DHT22;25998;46.604;13.610;2023-02-28T02:48:40;0.10;99.90
40287;DHT22;25998;46.604;13.610;2023-02-28T02:51:53;0.00;99.90
40287;DHT22;25998;46.604;13.610;2023-02-28T02:55:07;-0.10;99.90
40287;DHT22;25998;46.604;13.610;2023-02-28T02:58:28;-0.10;99.90
40287;DHT22;25998;46.604;13.610;2023-02-28T03:01:41;-0.10;99.90
40287;DHT22;25998;46.604;13.610;2023-02-28T03:04:58;-0.10;99.90
40287;DHT22;25998;46.604;13.610;2023-02-28T03:08:13;-0.10;99.90
40287;DHT22;25998;46.604;13.610;2023-02-28T03:11:25;0.00;99.90
40287;DHT22;25998;46.604;13.610;2023-02-28T03:15:06;0.00;99.90
40287;DHT22;25998;46.604;13.610;2023-02-28T03:18:42;-0.10;99.90
40287;DHT22;25998;46.604;13.610;2023-02-28T03:25:39;-0.10;99.90
40287;DHT22;25998;46.604;13.610;2023-02-28T03:29:26;0.00;99.90
40287;DHT22;25998;46.604;13.610;2023-02-28T03:36:25;0.00;99.90
40287;DHT22;25998;46.604;13.610;2023-02-28T03:39:43;0.00;99.90
40287;DHT22;25998;46.604;13.610;2023-02-28T03:42:59;0.00;99.90
40287;DHT22;25998;46.604;13.610;2023-02-28T03:46:16;-0.10;99.90
40287;DHT22;25998;46.604;13.610;2023-02-28T03:49:36;-0.10;99.90
40287;DHT22;25998;46.604;13.610;2023-02-28T03:53:27;0.10;99.90
40287;DHT22;25998;46.604;13.610;2023-02-28T03:56:48;0.10;99.90
40287;DHT22;25998;46.604;13.610;2023-02-28T04:00:10;0.10;99.90
40287;DHT22;25998;46.604;13.610;2023-02-28T04:03:24;0.00;99.90
40287;DHT22;25998;46.604;13.610;2023-02-28T04:06:35;0.10;99.90
40287;DHT22;25998;46.604;13.610;2023-02-28T04:09:46;0.20;99.90
40287;DHT22;25998;46.604;13.610;2023-02-28T04:12:57;0.10;99.90
40287;DHT22;25998;46.604;13.610;2023-02-28T04:16:08;0.00;99.90
40287;DHT22;25998;46.604;13.610;2023-02-28T04:19:22;-0.20;99.90
40287;DHT22;25998;46.604;13.610;2023-02-28T04:22:33;-0.20;99.90
40287;DHT22;25998;46.604;13.610;2023-02-28T04:25:44;-0.10;99.90
40287;DHT22;25998;46.604;13.610;2023-02-28T04:28:55;0.20;99.90
40287;DHT22;25998;46.604;13.610;2023-02-28T04:32:06;0.20;99.90
40287;DHT22;25998;46.604;13.610;2023-02-28T04:35:16;0.30;99.90
40287;DHT22;25998;46.604;13.610;2023-02-28T04:38:28;0.40;99.90
40287;DHT22;25998;46.604;13.610;2023-02-28T04:41:38;0.40;99.90
40287;DHT22;25998;46.604;13.610;2023-02-28T04:44:49;0.30;99.90
40287;DHT22;25998;46.604;13.610;2023-02-28T04:48:00;0.30;99.90
40287;DHT22;25998;46.604;13.610;2023-02-28T04:51:13;0.40;99.90
40287;DHT22;25998;46.604;13.610;2023-02-28T04:54:24;0.30;99.90
40287;DHT22;25998;46.604;13.610;2023-02-28T04:57:35;0.40;99.90
40287;DHT22;25998;46.604;13.610;2023-02-28T05:00:46;0.30;99.90
40287;DHT22;25998;46.604;13.610;2023-02-28T05:03:59;0.20;99.90
40287;DHT22;25998;46.604;13.610;2023-02-28T05:07:10;0.20;99.90
40287;DHT22;25998;46.604;13.610;2023-02-28T05:10:21;0.10;99.90
40287;DHT22;25998;46.604;13.610;2023-02-28T05:13:32;0.20;99.90
40287;DHT22;25998;46.604;13.610;2023-02-28T05:16:43;0.10;99.90
40287;DHT22;25998;46.604;13.610;2023-02-28T05:19:53;0.10;99.90
40287;DHT22;25998;46.604;13.610;2023-02-28T05:23:04;0.20;99.90
40287;DHT22;25998;46.604;13.610;2023-02-28T05:26:15;0.30;99.90
40287;DHT22;25998;46.604;13.610;2023-02-28T05:29:26;0.40;99.90
40287;DHT22;25998;46.604;13.610;2023-02-28T05:32:38;0.40;99.90
40287;DHT22;25998;46.604;13.610;2023-02-28T05:35:49;0.30;99.90
40287;DHT22;25998;46.604;13.610;2023-02-28T05:39:00;0.30;99.90
40287;DHT22;25998;46.604;13.610;2023-02-28T05:42:11;0.30;99.90
40287;DHT22;25998;46.604;13.610;2023-02-28T05:45:22;0.20;99.90
40287;DHT22;25998;46.604;13.610;2023-02-28T05:48:34;0.30;99.90
40287;DHT22;25998;46.604;13.610;2023-02-28T05:51:45;0.30;99.90
40287;DHT22;25998;46.604;13.610;2023-02-28T05:54:56;0.10;99.90
40287;DHT22;25998;46.604;13.610;2023-02-28T05:58:07;0.00;99.90
40287;DHT22;25998;46.604;13.610;2023-02-28T06:04:45;0.40;99.90
40287;DHT22;25998;46.604;13.610;2023-02-28T06:07:56;0.40;99.90
40287;DHT22;25998;46.604;13.610;2023-02-28T06:11:07;0.20;99.90
40287;DHT22;25998;46.604;13.610;2023-02-28T06:14:19;0.30;99.90
40287;DHT22;25998;46.604;13.610;2023-02-28T06:17:30;0.20;99.90
40287;DHT22;25998;46.604;13.610;2023-02-28T06:20:41;0.30;99.90
40287;DHT22;25998;46.604;13.610;2023-02-28T06:23:53;0.20;99.90
40287;DHT22;25998;46.604;13.610;2023-02-28T06:27:04;0.00;99.90
40287;DHT22;25998;46.604;13.610;2023-02-28T06:30:15;0.20;99.90
40287;DHT22;25998;46.604;13.610;2023-02-28T06:33:26;0.40;99.90
40287;DHT22;25998;46.604;13.610;2023-02-28T06:36:38;0.40;99.90
40287;DHT22;25998;46.604;13.610;2023-02-28T06:39:49;0.30;99.90
40287;DHT22;25998;46.604;13.610;2023-02-28T06:43:00;0.10;99.90
40287;DHT22;25998;46.604;13.610;2023-02-28T06:46:12;0.20;99.90
40287;DHT22;25998;46.604;13.610;2023-02-28T06:49:24;0.20;99.90
40287;DHT22;25998;46.604;13.610;2023-02-28T06:52:35;0.20;99.90
40287;DHT22;25998;46.604;13.610;2023-02-28T06:55:48;0.30;99.90
40287;DHT22;25998;46.604;13.610;2023-02-28T06:58:59;0.40;99.90
40287;DHT22;25998;46.604;13.610;2023-02-28T07:02:10;0.40;99.90
40287;DHT22;25998;46.604;13.610;2023-02-28T07:05:21;0.50;99.90
40287;DHT22;25998;46.604;13.610;2023-02-28T07:08:33;0.50;99.90
40287;DHT22;25998;46.604;13.610;2023-02-28T07:11:44;0.50;99.90
40287;DHT22;25998;46.604;13.610;2023-02-28T07:14:55;0.50;99.90
40287;DHT22;25998;46.604;13.610;2023-02-28T07:18:06;0.40;99.90
40287;DHT22;25998;46.604;13.610;2023-02-28T07:21:17;0.30;99.90
40287;DHT22;25998;46.604;13.610;2023-02-28T07:24:28;0.40;99.90
40287;DHT22;25998;46.604;13.610;2023-02-28T07:27:39;0.50;99.90
40287;DHT22;25998;46.604;13.610;2023-02-28T07:30:50;0.50;99.90
40287;DHT22;25998;46.604;13.610;2023-02-28T07:34:01;0.50;99.90
40287;DHT22;25998;46.604;13.610;2023-02-28T07:37:13;0.30;99.90
40287;DHT22;25998;46.604;13.610;2023-02-28T07:40:24;0.40;99.90
40287;DHT22;25998;46.604;13.610;2023-02-28T07:43:35;0.40;99.90
40287;DHT22;25998;46.604;13.610;2023-02-28T07:46:46;0.50;99.90
40287;DHT22;25998;46.604;13.610;2023-02-28T07:49:57;0.60;99.90
40287;DHT22;25998;46.604;13.610;2023-02-28T07:53:08;0.40;99.90
40287;DHT22;25998;46.604;13.610;2023-02-28T07:56:19;0.30;99.90
40287;DHT22;25998;46.604;13.610;2023-02-28T07:59:30;0.30;99.90
40287;DHT22;25998;46.604;13.610;2023-02-28T08:02:41;0.40;99.90
40287;DHT22;25998;46.604;13.610;2023-02-28T08:05:51;0.50;99.90
40287;DHT22;25998;46.604;13.610;2023-02-28T08:09:03;0.30;99.90
40287;DHT22;25998;46.604;13.610;2023-02-28T08:12:14;0.30;99.90
40287;DHT22;25998;46.604;13.610;2023-02-28T08:15:25;0.30;99.90
40287;DHT22;25998;46.604;13.610;2023-02-28T08:18:36;0.40;99.90
40287;DHT22;25998;46.604;13.610;2023-02-28T08:21:47;0.40;99.90
40287;DHT22;25998;46.604;13.610;2023-02-28T08:24:58;0.30;99.90
40287;DHT22;25998;46.604;13.610;2023-02-28T08:28:08;0.30;99.90
40287;DHT22;25998;46.604;13.610;2023-02-28T08:31:19;0.50;99.90
40287;DHT22;25998;46.604;13.610;2023-02-28T08:34:30;0.40;99.90
40287;DHT22;25998;46.604;13.610;2023-02-28T08:37:41;0.20;99.90
40287;DHT22;25998;46.604;13.610;2023-02-28T08:40:59;0.00;99.90
40287;DHT22;25998;46.604;13.610;2023-02-28T08:44:10;0.00;99.90
40287;DHT22;25998;46.604;13.610;2023-02-28T08:47:21;0.20;99.90
40287;DHT22;25998;46.604;13.610;2023-02-28T08:50:32;0.30;99.90
40287;DHT22;25998;46.604;13.610;2023-02-28T08:53:43;0.50;99.90
40287;DHT22;25998;46.604;13.610;2023-02-28T08:56:53;0.40;99.90
40287;DHT22;25998;46.604;13.610;2023-02-28T09:00:05;0.50;99.90
40287;DHT22;25998;46.604;13.610;2023-02-28T09:03:16;0.60;99.90
40287;DHT22;25998;46.604;13.610;2023-02-28T09:06:27;0.70;99.90
40287;DHT22;25998;46.604;13.610;2023-02-28T09:09:38;0.60;99.90
40287;DHT22;25998;46.604;13.610;2023-02-28T09:13:04;0.60;99.90
40287;DHT22;25998;46.604;13.610;2023-02-28T09:16:15;0.50;99.90
40287;DHT22;25998;46.604;13.610;2023-02-28T09:19:26;0.60;99.90
40287;DHT22;25998;46.604;13.610;2023-02-28T09:22:37;0.50;99.90
40287;DHT22;25998;46.604;13.610;2023-02-28T09:25:50;0.60;99.90
40287;DHT22;25998;46.604;13.610;2023-02-28T09:29:01;0.50;99.90
40287;DHT22;25998;46.604;13.610;2023-02-28T09:32:13;0.60;99.90
40287;DHT22;25998;46.604;13.610;2023-02-28T09:35:24;0.60;99.90
40287;DHT22;25998;46.604;13.610;2023-02-28T09:38:35;0.70;99.90
40287;DHT22;25998;46.604;13.610;2023-02-28T09:41:48;0.80;99.90
40287;DHT22;25998;46.604;13.610;2023-02-28T09:45:03;0.90;99.90
40287;DHT22;25998;46.604;13.610;2023-02-28T09:48:23;0.80;99.90
40287;DHT22;25998;46.604;13.610;2023-02-28T09:52:04;0.80;99.90
40287;DHT22;25998;46.604;13.610;2023-02-28T09:59:00;1.00;99.90
40287;DHT22;25998;46.604;13.610;2023-02-28T10:06:01;1.10;99.90
40287;DHT22;25998;46.604;13.610;2023-02-28T10:12:33;0.90;99.90
40287;DHT22;25998;46.604;13.610;2023-02-28T10:15:51;0.80;99.90
40287;DHT22;25998;46.604;13.610;2023-02-28T10:19:11;0.90;99.90
40287;DHT22;25998;46.604;13.610;2023-02-28T10:23:12;0.90;99.90
40287;DHT22;25998;46.604;13.610;2023-02-28T10:26:12;0.90;99.90
40287;DHT22;25998;46.604;13.610;2023-02-28T10:29:24;1.00;99.90
40287;DHT22;25998;46.604;13.610;2023-02-28T10:32:36;1.10;99.90
40287;DHT22;25998;46.604;13.610;2023-02-28T10:35:49;1.20;99.90
40287;DHT22;25998;46.604;13.610;2023-02-28T10:39:00;1.20;99.90
40287;DHT22;25998;46.604;13.610;2023-02-28T10:42:24;1.20;99.90
40287;DHT22;25998;46.604;13.610;2023-02-28T10:45:36;1.20;99.90
40287;DHT22;25998;46.604;13.610;2023-02-28T10:49:01;1.00;99.90
40287;DHT22;25998;46.604;13.610;2023-02-28T10:52:12;0.90;99.90
40287;DHT22;25998;46.604;13.610;2023-02-28T10:55:25;0.90;99.90
40287;DHT22;25998;46.604;13.610;2023-02-28T11:02:29;1.00;99.90
40287;DHT22;25998;46.604;13.610;2023-02-28T11:05:46;1.30;99.90
40287;DHT22;25998;46.604;13.610;2023-02-28T11:09:15;1.40;99.90
40287;DHT22;25998;46.604;13.610;2023-02-28T11:12:38;1.70;99.80
40287;DHT22;25998;46.604;13.610;2023-02-28T11:15:54;1.60;99.20
40287;DHT22;25998;46.604;13.610;2023-02-28T11:19:17;1.60;99.20
40287;DHT22;25998;46.604;13.610;2023-02-28T11:22:31;1.70;99.10
40287;DHT22;25998;46.604;13.610;2023-02-28T11:25:48;1.80;99.60
40287;DHT22;25998;46.604;13.610;2023-02-28T11:29:16;1.60;99.20
40287;DHT22;25998;46.604;13.610;2023-02-28T11:32:29;1.50;99.30
40287;DHT22;25998;46.604;13.610;2023-02-28T11:35:40;1.60;99.30
40287;DHT22;25998;46.604;13.610;2023-02-28T11:38:54;1.70;99.20
40287;DHT22;25998;46.604;13.610;2023-02-28T11:42:18;2.00;99.50
40287;DHT22;25998;46.604;13.610;2023-02-28T11:49:14;2.30;98.70
40287;DHT22;25998;46.604;13.610;2023-02-28T11:52:37;2.30;98.60
40287;DHT22;25998;46.604;13.610;2023-02-28T11:56:10;2.40;98.30
40287;DHT22;25998;46.604;13.610;2023-02-28T11:59:31;2.10;98.50
40287;DHT22;25998;46.604;13.610;2023-02-28T12:03:14;2.00;98.40
40287;DHT22;25998;46.604;13.610;2023-02-28T12:06:40;1.90;98.30
40287;DHT22;25998;46.604;13.610;2023-02-28T12:10:23;2.00;99.00
40287;DHT22;25998;46.604;13.610;2023-02-28T12:17:11;2.00;98.40
40287;DHT22;25998;46.604;13.610;2023-02-28T12:20:33;2.00;98.30
40287;DHT22;25998;46.604;13.610;2023-02-28T12:24:26;2.10;98.70
40287;DHT22;25998;46.604;13.610;2023-02-28T12:27:42;2.50;98.20
40287;DHT22;25998;46.604;13.610;2023-02-28T12:31:24;2.50;97.90
40287;DHT22;25998;46.604;13.610;2023-02-28T12:34:41;2.30;97.40
40287;DHT22;25998;46.604;13.610;2023-02-28T12:41:59;2.30;97.60
40287;DHT22;25998;46.604;13.610;2023-02-28T12:45:24;2.40;97.50
40287;DHT22;25998;46.604;13.610;2023-02-28T12:48:43;2.30;98.00
40287;DHT22;25998;46.604;13.610;2023-02-28T12:51:55;2.40;97.70
40287;DHT22;25998;46.604;13.610;2023-02-28T12:55:13;2.30;98.00
40287;DHT22;25998;46.604;13.610;2023-02-28T12:58:48;2.40;98.20
40287;DHT22;25998;46.604;13.610;2023-02-28T13:06:22;2.80;97.80
40287;DHT22;25998;46.604;13.610;2023-02-28T13:09:39;2.90;98.00
40287;DHT22;25998;46.604;13.610;2023-02-28T13:12:52;3.00;97.70
40287;DHT22;25998;46.604;13.610;2023-02-28T13:16:08;3.10;97.90
40287;DHT22;25998;46.604;13.610;2023-02-28T13:19:20;3.30;98.50
40287;DHT22;25998;46.604;13.610;2023-02-28T13:22:39;3.30;97.60
40287;DHT22;25998;46.604;13.610;2023-02-28T13:25:51;3.30;97.20
40287;DHT22;25998;46.604;13.610;2023-02-28T13:32:32;3.20;97.50
40287;DHT22;25998;46.604;13.610;2023-02-28T13:35:44;3.30;97.50
40287;DHT22;25998;46.604;13.610;2023-02-28T13:39:03;3.40;97.70
40287;DHT22;25998;46.604;13.610;2023-02-28T13:42:34;3.50;97.40
40287;DHT22;25998;46.604;13.610;2023-02-28T13:46:12;3.40;97.70
40287;DHT22;25998;46.604;13.610;2023-02-28T13:52:48;3.40;97.80
40287;DHT22;25998;46.604;13.610;2023-02-28T13:56:03;3.50;98.00
40287;DHT22;25998;46.604;13.610;2023-02-28T14:06:30;3.60;97.90
40287;DHT22;25998;46.604;13.610;2023-02-28T14:09:49;3.50;97.90
40287;DHT22;25998;46.604;13.610;2023-02-28T14:13:10;3.60;98.20
40287;DHT22;25998;46.604;13.610;2023-02-28T14:16:34;3.60;97.60
40287;DHT22;25998;46.604;13.610;2023-02-28T14:19:46;3.60;97.30
40287;DHT22;25998;46.604;13.610;2023-02-28T14:23:30;3.40;97.10
40287;DHT22;25998;46.604;13.610;2023-02-28T14:37:33;3.00;97.20
40287;DHT22;25998;46.604;13.610;2023-02-28T14:40:46;3.00;97.30
40287;DHT22;25998;46.604;13.610;2023-02-28T14:43:59;3.10;97.20
40287;DHT22;25998;46.604;13.610;2023-02-28T14:47:15;2.90;97.30
40287;DHT22;25998;46.604;13.610;2023-02-28T14:50:31;3.00;97.40
40287;DHT22;25998;46.604;13.610;2023-02-28T14:53:42;3.10;97.90
40287;DHT22;25998;46.604;13.610;2023-02-28T14:56:53;3.10;98.10
40287;DHT22;25998;46.604;13.610;2023-02-28T15:00:14;3.20;98.60
40287;DHT22;25998;46.604;13.610;2023-02-28T15:03:34;3.30;97.80
40287;DHT22;25998;46.604;13.610;2023-02-28T15:06:46;3.30;97.60
40287;DHT22;25998;46.604;13.610;2023-02-28T15:10:19;3.30;97.60
40287;DHT22;25998;46.604;13.610;2023-02-28T15:13:40;3.40;98.10
40287;DHT22;25998;46.604;13.610;2023-02-28T15:16:56;3.20;97.00
40287;DHT22;25998;46.604;13.610;2023-02-28T15:20:12;3.20;98.10
40287;DHT22;25998;46.604;13.610;2023-02-28T15:23:23;3.20;97.80
40287;DHT22;25998;46.604;13.610;2023-02-28T15:26:46;3.30;98.90
40287;DHT22;25998;46.604;13.610;2023-02-28T15:30:04;3.30;98.50
40287;DHT22;25998;46.604;13.610;2023-02-28T15:33:30;3.30;98.40
40287;DHT22;25998;46.604;13.610;2023-02-28T15:36:41;3.40;98.30
40287;DHT22;25998;46.604;13.610;2023-02-28T15:39:53;3.40;98.40
40287;DHT22;25998;46.604;13.610;2023-02-28T15:43:25;3.40;98.60
40287;DHT22;25998;46.604;13.610;2023-02-28T15:46:36;3.30;99.70
40287;DHT22;25998;46.604;13.610;2023-02-28T15:49:53;3.30;99.80
40287;DHT22;25998;46.604;13.610;2023-02-28T15:53:33;3.40;99.40
40287;DHT22;25998;46.604;13.610;2023-02-28T15:56:45;3.40;98.90
40287;DHT22;25998;46.604;13.610;2023-02-28T16:00:00;3.30;99.00
40287;DHT22;25998;46.604;13.610;2023-02-28T16:03:26;3.30;99.70
40287;DHT22;25998;46.604;13.610;2023-02-28T16:07:11;3.30;98.60
40287;DHT22;25998;46.604;13.610;2023-02-28T16:10:18;3.30;98.40
40287;DHT22;25998;46.604;13.610;2023-02-28T16:13:29;3.20;99.10
40287;DHT22;25998;46.604;13.610;2023-02-28T16:16:43;3.10;99.80
40287;DHT22;25998;46.604;13.610;2023-02-28T16:19:55;3.00;99.90
40287;DHT22;25998;46.604;13.610;2023-02-28T16:23:06;3.10;99.90
40287;DHT22;25998;46.604;13.610;2023-02-28T16:26:21;3.10;99.90
40287;DHT22;25998;46.604;13.610;2023-02-28T16:29:35;3.10;99.50
40287;DHT22;25998;46.604;13.610;2023-02-28T16:32:47;2.90;99.90
40287;DHT22;25998;46.604;13.610;2023-02-28T16:36:01;2.80;99.90
40287;DHT22;25998;46.604;13.610;2023-02-28T16:39:12;2.80;99.80
40287;DHT22;25998;46.604;13.610;2023-02-28T16:42:27;2.80;99.90
40287;DHT22;25998;46.604;13.610;2023-02-28T16:45:39;2.70;99.90
40287;DHT22;25998;46.604;13.610;2023-02-28T16:48:50;2.80;99.90
40287;DHT22;25998;46.604;13.610;2023-02-28T16:52:01;2.80;99.90
40287;DHT22;25998;46.604;13.610;2023-02-28T16:55:13;2.80;99.90
40287;DHT22;25998;46.604;13.610;2023-02-28T16:58:24;2.90;99.90
40287;DHT22;25998;46.604;13.610;2023-02-28T17:01:36;2.80;99.90
40287;DHT22;25998;46.604;13.610;2023-02-28T17:04:47;2.80;99.90
40287;DHT22;25998;46.604;13.610;2023-02-28T17:07:58;2.60;99.90
40287;DHT22;25998;46.604;13.610;2023-02-28T17:11:08;2.70;99.90
40287;DHT22;25998;46.604;13.610;2023-02-28T17:22:07;2.60;99.90
40287;DHT22;25998;46.604;13.610;2023-02-28T17:25:19;2.60;99.90
40287;DHT22;25998;46.604;13.610;2023-02-28T17:28:33;2.60;99.90
40287;DHT22;25998;46.604;13.610;2023-02-28T17:31:44;2.60;99.90
40287;DHT22;25998;46.604;13.610;2023-02-28T17:34:54;2.50;99.90
40287;DHT22;25998;46.604;13.610;2023-02-28T17:38:17;2.60;99.90
40287;DHT22;25998;46.604;13.610;2023-02-28T17:41:30;2.60;99.90
40287;DHT22;25998;46.604;13.610;2023-02-28T17:44:41;2.40;99.90
40287;DHT22;25998;46.604;13.610;2023-02-28T17:47:52;2.40;99.90
40287;DHT22;25998;46.604;13.610;2023-02-28T17:51:03;2.40;99.90
40287;DHT22;25998;46.604;13.610;2023-02-28T17:54:16;2.30;99.90
40287;DHT22;25998;46.604;13.610;2023-02-28T17:57:27;2.50;99.90
40287;DHT22;25998;46.604;13.610;2023-02-28T18:00:38;2.50;99.90
40287;DHT22;25998;46.604;13.610;2023-02-28T18:03:51;2.40;99.90
40287;DHT22;25998;46.604;13.610;2023-02-28T18:07:02;2.30;99.90
40287;DHT22;25998;46.604;13.610;2023-02-28T18:10:16;2.40;99.90
40287;DHT22;25998;46.604;13.610;2023-02-28T18:13:32;2.60;99.90
40287;DHT22;25998;46.604;13.610;2023-02-28T18:16:44;2.80;99.90
40287;DHT22;25998;46.604;13.610;2023-02-28T18:19:58;2.70;99.90
40287;DHT22;25998;46.604;13.610;2023-02-28T18:23:12;2.60;99.90
40287;DHT22;25998;46.604;13.610;2023-02-28T18:26:23;2.60;99.90
40287;DHT22;25998;46.604;13.610;2023-02-28T18:29:34;2.50;99.90
40287;DHT22;25998;46.604;13.610;2023-02-28T18:32:45;2.50;99.90
40287;DHT22;25998;46.604;13.610;2023-02-28T18:35:59;2.60;99.90
40287;DHT22;25998;46.604;13.610;2023-02-28T18:39:16;2.40;99.90
40287;DHT22;25998;46.604;13.610;2023-02-28T18:42:27;2.50;99.90
40287;DHT22;25998;46.604;13.610;2023-02-28T18:45:38;2.50;99.90
40287;DHT22;25998;46.604;13.610;2023-02-28T18:48:49;2.60;99.90
40287;DHT22;25998;46.604;13.610;2023-02-28T18:52:01;2.70;99.90
40287;DHT22;25998;46.604;13.610;2023-02-28T18:55:12;2.70;99.90
40287;DHT22;25998;46.604;13.610;2023-02-28T18:58:28;2.40;99.90
40287;DHT22;25998;46.604;13.610;2023-02-28T19:01:39;2.00;99.90
40287;DHT22;25998;46.604;13.610;2023-02-28T19:04:50;2.10;99.90
40287;DHT22;25998;46.604;13.610;2023-02-28T19:08:01;2.30;99.90
40287;DHT22;25998;46.604;13.610;2023-02-28T19:11:15;2.40;99.90
40287;DHT22;25998;46.604;13.610;2023-02-28T19:14:26;2.40;99.90
40287;DHT22;25998;46.604;13.610;2023-02-28T19:17:37;2.50;99.90
40287;DHT22;25998;46.604;13.610;2023-02-28T19:20:49;2.60;99.90
40287;DHT22;25998;46.604;13.610;2023-02-28T19:24:02;2.50;99.90
40287;DHT22;25998;46.604;13.610;2023-02-28T19:27:13;2.40;99.90
40287;DHT22;25998;46.604;13.610;2023-02-28T19:30:23;2.20;99.90
40287;DHT22;25998;46.604;13.610;2023-02-28T19:33:35;2.30;99.90
40287;DHT22;25998;46.604;13.610;2023-02-28T19:36:46;2.30;99.90
40287;DHT22;25998;46.604;13.610;2023-02-28T19:39:57;2.30;99.90
40287;DHT22;25998;46.604;13.610;2023-02-28T19:43:10;2.30;99.90
40287;DHT22;25998;46.604;13.610;2023-02-28T19:46:23;2.10;99.90
40287;DHT22;25998;46.604;13.610;2023-02-28T19:49:38;1.90;99.90
40287;DHT22;25998;46.604;13.610;2023-02-28T19:52:49;1.80;99.90
40287;DHT22;25998;46.604;13.610;2023-02-28T19:56:01;1.80;99.90
40287;DHT22;25998;46.604;13.610;2023-02-28T19:59:13;1.90;99.90
40287;DHT22;25998;46.604;13.610;2023-02-28T20:02:24;2.10;99.90
40287;DHT22;25998;46.604;13.610;2023-02-28T20:05:35;2.20;99.90
40287;DHT22;25998;46.604;13.610;2023-02-28T20:08:47;2.20;99.90
40287;DHT22;25998;46.604;13.610;2023-02-28T20:11:58;2.30;99.90
40287;DHT22;25998;46.604;13.610;2023-02-28T20:15:12;2.40;99.90
40287;DHT22;25998;46.604;13.610;2023-02-28T20:18:23;2.30;99.90
40287;DHT22;25998;46.604;13.610;2023-02-28T20:21:37;2.20;99.90
40287;DHT22;25998;46.604;13.610;2023-02-28T20:24:50;2.00;99.90
40287;DHT22;25998;46.604;13.610;2023-02-28T20:28:02;1.90;99.90
40287;DHT22;25998;46.604;13.610;2023-02-28T20:31:19;1.90;99.90
40287;DHT22;25998;46.604;13.610;2023-02-28T20:34:31;2.10;99.90
40287;DHT22;25998;46.604;13.610;2023-02-28T20:37:42;2.00;99.90
40287;DHT22;25998;46.604;13.610;2023-02-28T20:40:55;1.70;99.90
40287;DHT22;25998;46.604;13.610;2023-02-28T20:44:06;1.80;99.90
40287;DHT22;25998;46.604;13.610;2023-02-28T20:47:17;1.90;99.90
40287;DHT22;25998;46.604;13.610;2023-02-28T20:50:28;1.90;99.90
40287;DHT22;25998;46.604;13.610;2023-02-28T20:53:39;1.90;99.90
40287;DHT22;25998;46.604;13.610;2023-02-28T20:56:52;2.00;99.90
40287;DHT22;25998;46.604;13.610;2023-02-28T21:00:06;1.90;99.90
40287;DHT22;25998;46.604;13.610;2023-02-28T21:03:19;2.00;99.90
40287;DHT22;25998;46.604;13.610;2023-02-28T21:06:36;1.90;99.90
40287;DHT22;25998;46.604;13.610;2023-02-28T21:09:47;1.80;99.90
40287;DHT22;25998;46.604;13.610;2023-02-28T21:13:01;1.90;99.90
40287;DHT22;25998;46.604;13.610;2023-02-28T21:16:17;1.90;99.90
40287;DHT22;25998;46.604;13.610;2023-02-28T21:19:28;1.80;99.90
40287;DHT22;25998;46.604;13.610;2023-02-28T21:22:39;1.70;99.90
40287;DHT22;25998;46.604;13.610;2023-02-28T21:25:50;1.60;99.90
40287;DHT22;25998;46.604;13.610;2023-02-28T21:29:02;1.60;99.90
40287;DHT22;25998;46.604;13.610;2023-02-28T21:32:14;1.60;99.90
40287;DHT22;25998;46.604;13.610;2023-02-28T21:35:35;1.60;99.90
40287;DHT22;25998;46.604;13.610;2023-02-28T21:38:47;1.70;99.90
40287;DHT22;25998;46.604;13.610;2023-02-28T21:42:01;1.90;99.90
40287;DHT22;25998;46.604;13.610;2023-02-28T21:45:13;2.10;99.90
40287;DHT22;25998;46.604;13.610;2023-02-28T21:48:27;1.90;99.90
40287;DHT22;25998;46.604;13.610;2023-02-28T21:51:44;1.90;99.90
40287;DHT22;25998;46.604;13.610;2023-02-28T21:54:55;1.80;99.90
40287;DHT22;25998;46.604;13.610;2023-02-28T21:58:06;1.70;99.90